Time;durP1;ratioP1;P1;durP2;ratioP2;P2;SDS_P1;SDS_P2;PMS_P1;PMS_P2;Temp;Humidity;BMP_temperature;BMP_pressure;BME280_temperature;BME280_humidity;BME280_pressure;Samples;Min_cycle;Max_cycle;Signal;HPM_P1;HPM_P2
2022/04/27 00:04:49;;;;;;;4.28;2.00;;;9.30;99.90;;;;;;4951115;28;20458;-82
2022/04/27 00:07:15;;;;;;;8.23;1.90;;;9.30;99.90;;;;;;4936245;28;20114;-82
2022/04/27 00:13:54;;;;;;;4.75;2.03;;;9.30;99.90;;;;;;4999107;28;20043;-82
2022/04/27 00:19:36;;;;;;;7.30;1.77;;;9.40;99.90;;;;;;5004913;28;20081;-83
2022/04/27 00:22:18;;;;;;;4.53;1.65;;;9.30;99.90;;;;;;5009713;28;20052;-83
2022/04/27 00:25:30;;;;;;;;;;;;;;;;;;;;;
2022/04/27 00:27:59;;;;;;;6.22;1.67;;;9.40;99.90;;;;;;5028224;28;20053;-82
2022/04/27 00:31:13;;;;;;;6.03;1.53;;;9.30;99.90;;;;;;5040622;28;20045;-83
2022/04/27 00:33:38;;;;;;;6.82;1.40;;;9.40;99.90;;;;;;5050383;22;20040;-68
2022/04/27 00:36:04;;;;;;;3.97;1.40;;;9.30;99.90;;;;;;5044416;28;20043;-68
2022/04/27 00:38:30;;;;;;;3.80;1.88;;;9.40;99.90;;;;;;5008702;28;20037;-68
2022/04/27 00:40:55;;;;;;;6.83;1.63;;;9.40;99.90;;;;;;5039406;28;20049;-68
2022/04/27 00:43:41;;;;;;;6.27;1.63;;;9.30;99.90;;;;;;5035155;28;20413;-68
2022/04/27 00:46:09;;;;;;;3.95;1.50;;;9.30;99.90;;;;;;5041961;28;20056;-71
2022/04/27 00:48:39;;;;;;;4.70;1.60;;;9.30;99.90;;;;;;5033080;28;20075;-68
2022/04/27 00:51:05;;;;;;;4.10;1.48;;;9.30;99.90;;;;;;5040455;28;20132;-68
2022/04/27 00:53:33;;;;;;;4.88;2.33;;;9.30;99.90;;;;;;5031907;28;20060;-68
2022/04/27 00:55:59;;;;;;;2.30;1.30;;;9.30;99.90;;;;;;5022381;28;20046;-68
2022/04/27 00:58:26;;;;;;;4.67;1.60;;;9.20;99.90;;;;;;5027300;28;20049;-68
2022/04/27 01:00:54;;;;;;;4.50;1.35;;;9.20;99.90;;;;;;5021846;28;20295;-68
2022/04/27 01:03:19;;;;;;;7.55;1.50;;;9.20;99.90;;;;;;5039979;28;20033;-68
2022/04/27 01:05:47;;;;;;;5.00;1.77;;;9.20;99.90;;;;;;5035269;28;20078;-68
2022/04/27 01:08:17;;;;;;;3.17;1.30;;;9.20;99.90;;;;;;5033866;28;20045;-68
2022/04/27 01:10:44;;;;;;;5.45;1.40;;;9.20;99.90;;;;;;5044727;28;20067;-68
2022/04/27 01:13:11;;;;;;;4.65;1.60;;;9.20;99.90;;;;;;5033773;28;20110;-68
2022/04/27 01:15:37;;;;;;;2.75;1.70;;;9.20;99.90;;;;;;5042206;28;20071;-68
2022/04/27 01:18:03;;;;;;;7.03;1.57;;;9.20;99.90;;;;;;5037463;28;20045;-68
2022/04/27 01:20:30;;;;;;;;;;;9.20;99.90;;;;;;5021337;28;20132;-67
2022/04/27 01:22:55;;;;;;;2.30;1.30;;;9.20;99.90;;;;;;5029307;28;20444;-68
2022/04/27 01:25:21;;;;;;;4.60;1.83;;;9.20;99.90;;;;;;5030094;28;20136;-68
2022/04/27 01:27:47;;;;;;;6.53;2.03;;;9.20;99.90;;;;;;5027033;28;20033;-68
2022/04/27 01:30:12;;;;;;;4.40;1.70;;;9.10;99.90;;;;;;5027219;28;20037;-68
2022/04/27 01:32:38;;;;;;;5.50;1.87;;;9.20;99.90;;;;;;5009984;28;20130;-68
2022/04/27 01:35:04;;;;;;;4.13;1.73;;;9.10;99.90;;;;;;5014908;28;20129;-68
2022/04/27 01:40:13;;;;;;;5.68;2.10;;;9.10;99.90;;;;;;5006764;28;20049;-68
2022/04/27 01:42:39;;;;;;;6.47;1.73;;;9.10;99.90;;;;;;5035294;28;20059;-68
2022/04/27 01:45:06;;;;;;;6.33;1.87;;;9.10;99.90;;;;;;5038213;28;20040;-68
2022/04/27 01:47:31;;;;;;;5.78;1.83;;;9.10;99.90;;;;;;5034043;28;20048;-68
2022/04/27 01:49:57;;;;;;;4.50;2.10;;;9.10;99.90;;;;;;5036352;28;20041;-68
2022/04/27 01:55:07;;;;;;;4.20;1.52;;;9.10;99.90;;;;;;5020208;28;20038;-68
2022/04/27 01:57:32;;;;;;;5.07;1.60;;;9.10;99.90;;;;;;5031142;28;20034;-68
2022/04/27 01:59:58;;;;;;;6.23;1.93;;;9.10;99.90;;;;;;5031408;28;20043;-68
2022/04/27 02:02:24;;;;;;;5.07;1.67;;;9.10;99.90;;;;;;5002482;28;20537;-68
2022/04/27 02:04:49;;;;;;;3.57;1.90;;;9.10;99.90;;;;;;5036551;28;20036;-68
2022/04/27 02:07:15;;;;;;;2.87;1.70;;;9.10;99.90;;;;;;5032232;28;20045;-68
2022/04/27 02:09:40;;;;;;;5.30;2.07;;;9.10;99.90;;;;;;5031528;28;20130;-67
2022/04/27 02:12:07;;;;;;;6.73;1.80;;;9.10;99.90;;;;;;5040693;28;20111;-68
2022/04/27 02:14:32;;;;;;;5.28;1.63;;;9.10;99.90;;;;;;5019222;28;20056;-69
2022/04/27 02:16:58;;;;;;;6.17;1.67;;;9.10;99.90;;;;;;5041178;28;20037;-68
2022/04/27 02:19:23;;;;;;;6.70;2.13;;;9.10;99.90;;;;;;5036600;28;20479;-68
2022/04/27 02:21:49;;;;;;;4.57;1.50;;;9.10;99.90;;;;;;5031899;28;20147;-68
2022/04/27 02:24:16;;;;;;;5.00;2.10;;;9.10;99.90;;;;;;5028631;28;20273;-68
2022/04/27 02:26:42;;;;;;;8.63;2.28;;;9.10;99.90;;;;;;5003101;28;20119;-68
2022/04/27 02:29:09;;;;;;;9.85;1.70;;;9.10;99.90;;;;;;5034160;28;20445;-68
2022/04/27 02:31:34;;;;;;;5.43;1.70;;;9.10;99.90;;;;;;5032361;28;20588;-68
2022/04/27 02:34:00;;;;;;;3.13;1.93;;;9.10;99.90;;;;;;5030432;28;20064;-67
2022/04/27 02:36:26;;;;;;;4.10;1.53;;;9.10;99.90;;;;;;5040146;28;20583;-68
2022/04/27 02:38:52;;;;;;;3.45;1.90;;;9.10;99.90;;;;;;5031654;28;21016;-65
2022/04/27 02:41:17;;;;;;;7.50;1.70;;;9.10;99.90;;;;;;5035828;28;20722;-65
2022/04/27 02:43:43;;;;;;;4.30;2.40;;;9.10;99.90;;;;;;5035124;28;20036;-64
2022/04/27 02:46:09;;;;;;;6.05;1.85;;;9.10;99.90;;;;;;5036068;28;20040;-65
2022/04/27 02:48:34;;;;;;;6.10;1.90;;;9.10;99.90;;;;;;5028157;28;20472;-65
2022/04/27 02:53:47;;;;;;;5.55;2.08;;;9.10;99.90;;;;;;5034601;28;20081;-64
2022/04/27 02:56:12;;;;;;;5.60;2.60;;;9.10;99.90;;;;;;5025530;28;20125;-65
2022/04/27 02:58:38;;;;;;;9.03;2.00;;;9.10;99.90;;;;;;5032827;28;20041;-65
2022/04/27 03:01:04;;;;;;;5.27;1.97;;;9.10;99.90;;;;;;5033716;28;20030;-65
2022/04/27 03:03:29;;;;;;;3.57;1.90;;;9.10;99.90;;;;;;5038393;28;20064;-65
2022/04/27 03:05:55;;;;;;;4.63;1.90;;;9.10;99.90;;;;;;5027417;28;20478;-65
2022/04/27 03:08:20;;;;;;;4.93;1.70;;;9.10;99.90;;;;;;5030983;28;20040;-65
2022/04/27 03:10:47;;;;;;;2.60;1.50;;;9.10;99.90;;;;;;5041975;28;20553;-65
2022/04/27 03:13:12;;;;;;;;;;;9.10;99.90;;;;;;5038596;28;20051;-64
2022/04/27 03:15:38;;;;;;;10.90;2.60;;;9.10;99.90;;;;;;5042405;28;19942;-65
2022/04/27 03:18:22;;;;;;;3.30;2.10;;;9.10;99.90;;;;;;5040714;28;20056;-65
2022/04/27 03:20:50;;;;;;;5.93;1.63;;;9.00;99.90;;;;;;5043466;28;20120;-65
2022/04/27 03:23:16;;;;;;;4.40;1.70;;;9.10;99.90;;;;;;5040017;28;20040;-64
2022/04/27 03:25:42;;;;;;;5.45;1.98;;;9.00;99.90;;;;;;5020501;28;20047;-65
2022/04/27 03:28:08;;;;;;;5.10;2.10;;;9.00;99.90;;;;;;5041544;28;20029;-65
2022/04/27 03:30:33;;;;;;;3.23;1.50;;;9.00;99.90;;;;;;5040349;28;20068;-71
2022/04/27 03:33:00;;;;;;;2.70;1.10;;;9.00;99.90;;;;;;5021907;28;20041;-65
2022/04/27 03:35:26;;;;;;;6.93;1.40;;;9.10;99.90;;;;;;5045231;28;20517;-65
2022/04/27 03:37:52;;;;;;;2.80;1.08;;;9.10;99.90;;;;;;5028173;28;20048;-73
2022/04/27 03:40:21;;;;;;;3.17;1.00;;;9.00;99.90;;;;;;5018363;28;20659;-65
2022/04/27 03:42:47;;;;;;;5.65;1.10;;;9.00;99.90;;;;;;5008833;28;20320;-66
2022/04/27 03:45:13;;;;;;;6.28;1.20;;;9.00;99.90;;;;;;5036859;28;20271;-66
2022/04/27 03:47:43;;;;;;;2.43;1.00;;;9.00;99.90;;;;;;5039957;28;20037;-66
2022/04/27 03:50:08;;;;;;;4.35;1.42;;;9.10;99.90;;;;;;5045638;28;20037;-65
2022/04/27 03:52:34;;;;;;;2.47;1.17;;;9.00;99.90;;;;;;5045046;28;20067;-65
2022/04/27 03:55:01;;;;;;;2.87;0.93;;;9.10;99.90;;;;;;5041231;28;20040;-65
2022/04/27 03:57:30;;;;;;;5.00;1.30;;;9.10;99.90;;;;;;5026560;28;20049;-71
2022/04/27 03:59:55;;;;;;;2.45;1.10;;;9.00;99.90;;;;;;5036138;28;20409;-65
2022/04/27 04:02:21;;;;;;;3.80;1.03;;;9.10;99.70;;;;;;5019766;28;20049;-65
2022/04/27 04:04:47;;;;;;;2.67;1.20;;;9.10;99.20;;;;;;5028950;28;20539;-65
2022/04/27 04:07:13;;;;;;;5.28;1.35;;;9.10;99.10;;;;;;5036205;28;20482;-65
2022/04/27 04:09:39;;;;;;;2.72;1.45;;;9.00;98.60;;;;;;5024101;28;20059;-65
2022/04/27 04:12:06;;;;;;;3.60;1.42;;;9.00;98.50;;;;;;5021003;28;20037;-65
2022/04/27 04:14:32;;;;;;;2.50;1.10;;;9.00;98.40;;;;;;5046231;28;20047;-65
2022/04/27 04:16:58;;;;;;;5.13;1.70;;;9.00;98.60;;;;;;5042119;28;20128;-66
2022/04/27 04:19:23;;;;;;;2.40;1.20;;;9.10;99.10;;;;;;5025069;28;20124;-65
2022/04/27 04:21:49;;;;;;;2.83;1.20;;;9.00;98.80;;;;;;5035907;28;20031;-66
2022/04/27 04:24:14;;;;;;;5.23;1.60;;;9.00;98.80;;;;;;5010815;28;20577;-66
2022/04/27 04:29:25;;;;;;;2.40;1.15;;;9.00;98.20;;;;;;5027647;28;20132;-65
2022/04/27 04:31:50;;;;;;;9.33;1.47;;;9.00;97.50;;;;;;5018216;28;20132;-66
2022/04/27 04:34:16;;;;;;;2.73;1.30;;;9.00;97.40;;;;;;5043814;28;20076;-65
2022/04/27 04:36:41;;;;;;;4.07;1.37;;;9.00;97.40;;;;;;5020485;28;20559;-65
2022/04/27 04:39:07;;;;;;;2.80;1.27;;;9.00;97.50;;;;;;5026884;28;20055;-66
2022/04/27 04:41:33;;;;;;;3.07;1.30;;;9.00;97.80;;;;;;5041241;28;20326;-66
2022/04/27 04:43:58;;;;;;;6.77;1.43;;;9.00;98.30;;;;;;5020907;28;20739;-66
2022/04/27 04:46:24;;;;;;;4.43;1.30;;;9.00;98.60;;;;;;5039348;28;20041;-65
2022/04/27 04:48:50;;;;;;;4.07;1.45;;;9.00;98.90;;;;;;5044398;28;20060;-65
2022/04/27 04:51:16;;;;;;;6.60;1.37;;;9.00;98.60;;;;;;5046357;28;20425;-66
2022/04/27 04:53:41;;;;;;;5.60;1.60;;;9.10;98.80;;;;;;5034021;28;20087;-65
2022/04/27 04:56:07;;;;;;;5.97;1.23;;;9.10;98.70;;;;;;5043642;28;20047;-66
2022/04/27 04:58:32;;;;;;;4.63;1.77;;;9.10;98.80;;;;;;5041290;28;20091;-65
2022/04/27 05:00:59;;;;;;;6.37;1.43;;;9.10;98.70;;;;;;5039413;28;20033;-65
2022/04/27 05:03:24;;;;;;;4.55;1.55;;;9.10;98.90;;;;;;5040610;28;20048;-65
2022/04/27 05:05:50;;;;;;;7.43;1.70;;;9.10;99.30;;;;;;5030992;28;20473;-65
2022/04/27 05:08:15;;;;;;;5.90;1.50;;;9.10;99.60;;;;;;5022316;28;20037;-65
2022/04/27 05:10:41;;;;;;;2.60;1.27;;;9.10;99.50;;;;;;5034443;28;20044;-66
2022/04/27 05:13:06;;;;;;;4.50;1.40;;;9.10;98.70;;;;;;5039126;28;20584;-66
2022/04/27 05:15:32;;;;;;;2.43;1.13;;;9.10;98.10;;;;;;5023067;28;20208;-66
2022/04/27 05:17:58;;;;;;;4.90;1.40;;;9.10;98.30;;;;;;5045172;28;20512;-66
2022/04/27 05:20:23;;;;;;;4.70;1.93;;;9.20;99.00;;;;;;5039940;28;20025;-66
2022/04/27 05:22:52;;;;;;;6.93;1.30;;;9.20;99.20;;;;;;5042329;28;20036;-66
2022/04/27 05:25:18;;;;;;;6.07;1.60;;;9.20;98.90;;;;;;5020267;28;20115;-65
2022/04/27 05:27:43;;;;;;;6.45;1.77;;;9.20;98.80;;;;;;5034679;28;20445;-66
2022/04/27 05:32:55;;;;;;;2.72;1.42;;;9.20;99.30;;;;;;5037136;28;20487;-66
2022/04/27 05:35:20;;;;;;;2.80;1.60;;;9.20;99.90;;;;;;5015604;28;20041;-65
2022/04/27 05:37:46;;;;;;;2.73;1.53;;;9.30;99.60;;;;;;5030050;28;20427;-66
2022/04/27 05:40:12;;;;;;;3.20;1.33;;;9.30;99.60;;;;;;5042432;28;20191;-66
2022/04/27 05:42:39;;;;;;;2.63;1.40;;;9.30;99.70;;;;;;5037949;28;20053;-66
2022/04/27 05:45:21;;;;;;;4.65;1.58;;;9.30;99.50;;;;;;5058286;22;20114;-86
2022/04/27 05:51:29;;;;;;;4.10;1.33;;;9.40;99.90;;;;;;5022691;28;20077;-86
2022/04/27 06:05:09;;;;;;;5.18;1.60;;;9.50;99.70;;;;;;5011068;23;20049;-69
2022/04/27 06:07:36;;;;;;;5.60;2.08;;;9.50;99.90;;;;;;5019012;28;20197;-69
2022/04/27 06:10:11;;;;;;;5.57;1.40;;;9.50;99.90;;;;;;5025825;28;20528;-69
2022/04/27 06:12:46;;;;;;;4.45;1.80;;;9.50;99.90;;;;;;5036320;28;20032;-69
2022/04/27 06:15:12;;;;;;;3.78;1.58;;;9.60;99.90;;;;;;5044610;28;20039;-69
2022/04/27 06:17:38;;;;;;;4.70;2.05;;;9.60;99.90;;;;;;5025355;28;20037;-69
2022/04/27 06:20:04;;;;;;;5.90;1.40;;;9.60;99.00;;;;;;5040463;28;20379;-69
2022/04/27 06:22:30;;;;;;;6.72;1.70;;;9.60;98.40;;;;;;5042866;28;20045;-69
2022/04/27 06:24:56;;;;;;;4.97;2.23;;;9.60;97.90;;;;;;5007365;28;20065;-69
2022/04/27 06:27:22;;;;;;;5.07;1.67;;;9.60;97.90;;;;;;5037266;28;20041;-69
2022/04/27 06:29:48;;;;;;;3.38;1.50;;;9.70;97.90;;;;;;5027275;28;20517;-69
2022/04/27 06:32:14;;;;;;;3.28;1.80;;;9.70;98.00;;;;;;5030025;28;20033;-69
2022/04/27 06:34:39;;;;;;;5.30;1.37;;;9.70;98.60;;;;;;5039286;28;20472;-69
2022/04/27 06:37:05;;;;;;;2.60;1.23;;;9.70;97.90;;;;;;5031002;28;20025;-69
2022/04/27 06:39:30;;;;;;;5.17;1.77;;;9.70;98.00;;;;;;5010100;28;20041;-70
2022/04/27 06:41:56;;;;;;;4.53;1.70;;;9.70;98.80;;;;;;5044354;28;20045;-69
2022/04/27 06:44:21;;;;;;;5.53;2.33;;;9.80;98.60;;;;;;5039723;28;20117;-69
2022/04/27 06:46:47;;;;;;;5.23;1.53;;;9.70;96.80;;;;;;5028359;28;20044;-69
2022/04/27 06:49:13;;;;;;;3.37;1.90;;;9.80;96.90;;;;;;5027456;28;20041;-69
2022/04/27 06:51:38;;;;;;;4.13;1.60;;;9.80;96.90;;;;;;5047315;28;20045;-69
2022/04/27 06:54:04;;;;;;;8.33;1.70;;;9.80;96.50;;;;;;5033118;28;20037;-69
2022/04/27 06:56:30;;;;;;;5.10;1.67;;;9.80;95.90;;;;;;5031663;28;20056;-69
2022/04/27 06:58:56;;;;;;;6.50;1.67;;;9.80;95.70;;;;;;5029718;28;20033;-69
2022/04/27 07:01:22;;;;;;;2.47;1.63;;;9.90;96.20;;;;;;5040800;28;20120;-69
2022/04/27 07:03:53;;;;;;;3.70;1.13;;;9.90;96.00;;;;;;5040781;28;20120;-69
2022/04/27 07:06:22;;;;;;;6.00;1.23;;;9.90;95.60;;;;;;5017394;28;20493;-69
2022/04/27 07:08:48;;;;;;;2.88;1.40;;;9.90;96.00;;;;;;5027119;28;20458;-69
2022/04/27 07:11:14;;;;;;;;;;;10.00;95.40;;;;;;5013051;28;20040;-69
2022/04/27 07:13:39;;;;;;;3.30;1.52;;;10.00;93.00;;;;;;5045412;28;20548;-69
2022/04/27 07:16:05;;;;;;;2.90;1.00;;;10.00;94.50;;;;;;5046236;28;20047;-66
2022/04/27 07:18:32;;;;;;;5.05;1.42;;;10.00;94.50;;;;;;5009977;28;20032;-70
2022/04/27 07:20:57;;;;;;;;;;;10.10;93.70;;;;;;5047795;28;20037;-70
2022/04/27 07:23:23;;;;;;;3.67;1.17;;;10.10;91.90;;;;;;5034737;28;19974;-70
2022/04/27 07:25:49;;;;;;;6.60;1.47;;;10.10;94.00;;;;;;5029454;28;20197;-70
2022/04/27 07:28:14;;;;;;;2.63;1.00;;;10.10;94.00;;;;;;5025926;28;20187;-70
2022/04/27 07:30:40;;;;;;;6.10;1.40;;;10.10;93.90;;;;;;5036040;28;20087;-70
2022/04/27 07:33:06;;;;;;;2.73;1.27;;;10.20;93.50;;;;;;5021096;28;20291;-70
2022/04/27 07:35:31;;;;;;;5.53;1.50;;;10.20;93.80;;;;;;5040391;28;20162;-69
2022/04/27 07:37:57;;;;;;;6.13;2.00;;;10.20;94.50;;;;;;5036496;28;20052;-69
2022/04/27 07:40:22;;;;;;;5.40;2.10;;;10.30;95.10;;;;;;5042147;28;20071;-69
2022/04/27 07:42:48;;;;;;;5.30;2.07;;;10.30;95.50;;;;;;5043131;28;20076;-70
2022/04/27 07:45:15;;;;;;;2.90;1.88;;;10.30;95.40;;;;;;5039495;28;20060;-69
2022/04/27 07:47:43;;;;;;;6.25;2.33;;;10.40;95.70;;;;;;5041934;28;20447;-69
2022/04/27 07:50:11;;;;;;;8.73;2.20;;;10.40;95.40;;;;;;5045213;28;20037;-69
2022/04/27 07:52:37;;;;;;;6.72;2.55;;;10.40;95.60;;;;;;5043116;28;20044;-69
2022/04/27 07:55:04;;;;;;;8.57;2.47;;;10.40;96.30;;;;;;5026653;28;20114;-69
2022/04/27 07:57:30;;;;;;;8.20;2.33;;;10.40;96.90;;;;;;5025500;28;20044;-69
2022/04/27 07:59:56;;;;;;;;;;;10.50;97.60;;;;;;5046438;28;20035;-69
2022/04/27 08:02:21;;;;;;;7.63;2.45;;;10.50;98.30;;;;;;5022799;28;19917;-69
2022/04/27 08:04:47;;;;;;;8.97;3.17;;;10.50;98.10;;;;;;5038310;28;20123;-70
2022/04/27 08:07:13;;;;;;;15.53;2.27;;;10.50;98.70;;;;;;5029055;28;20048;-70
2022/04/27 08:09:38;;;;;;;12.23;1.98;;;10.60;99.60;;;;;;5046775;28;20033;-70
2022/04/27 08:12:04;;;;;;;7.47;2.53;;;10.60;99.90;;;;;;5022917;28;20039;-66
2022/04/27 08:14:31;;;;;;;9.95;2.45;;;10.60;99.90;;;;;;5049783;28;20083;-66
2022/04/27 08:16:59;;;;;;;7.47;2.17;;;10.60;99.90;;;;;;5027163;28;20094;-66
2022/04/27 08:19:25;;;;;;;9.75;2.40;;;10.50;99.90;;;;;;5005383;28;20048;-66
2022/04/27 08:21:50;;;;;;;13.15;2.80;;;10.50;99.90;;;;;;5043062;28;20500;-67
2022/04/27 08:24:19;;;;;;;14.40;2.47;;;10.50;99.90;;;;;;5036371;28;20128;-66
2022/04/27 08:26:45;;;;;;;9.57;2.38;;;10.50;99.90;;;;;;5034175;28;20036;-66
2022/04/27 08:29:11;;;;;;;13.50;2.97;;;10.50;99.90;;;;;;5033097;28;20064;-66
2022/04/27 08:31:37;;;;;;;5.90;1.70;;;10.50;99.90;;;;;;5039857;28;20091;-66
2022/04/27 08:34:02;;;;;;;9.00;1.95;;;10.50;99.90;;;;;;5039814;28;20094;-66
2022/04/27 08:36:28;;;;;;;11.90;2.75;;;10.50;99.90;;;;;;5037711;28;20107;-66
2022/04/27 08:38:54;;;;;;;13.37;2.20;;;10.50;99.90;;;;;;5025549;28;20052;-66
2022/04/27 08:41:19;;;;;;;7.83;2.30;;;10.50;99.90;;;;;;5041627;28;20551;-66
2022/04/27 08:43:45;;;;;;;10.03;2.93;;;10.50;99.90;;;;;;5036938;28;20037;-66
2022/04/27 08:46:13;;;;;;;9.30;1.60;;;10.60;99.90;;;;;;5026821;28;20131;-66
2022/04/27 08:48:38;;;;;;;11.75;2.42;;;10.60;99.90;;;;;;5043926;28;20083;-66
2022/04/27 08:51:05;;;;;;;12.75;2.25;;;10.60;99.90;;;;;;5044317;28;20072;-67
2022/04/27 08:53:31;;;;;;;10.85;1.98;;;10.60;99.90;;;;;;5042843;28;20045;-66
2022/04/27 08:55:57;;;;;;;8.77;2.35;;;10.60;99.70;;;;;;5023683;28;20048;-66
2022/04/27 08:58:24;;;;;;;9.32;1.98;;;10.60;99.50;;;;;;5033753;28;20030;-67
2022/04/27 09:00:50;;;;;;;9.88;2.88;;;10.60;99.40;;;;;;5020107;28;20033;-66
2022/04/27 09:03:38;;;;;;;6.05;1.90;;;10.70;99.30;;;;;;5046264;28;20090;-66
2022/04/27 09:06:09;;;;;;;12.20;2.25;;;10.60;98.10;;;;;;5045296;28;20483;-67
2022/04/27 09:08:40;;;;;;;11.90;2.20;;;10.60;98.70;;;;;;5040190;28;20042;-66
2022/04/27 09:11:21;;;;;;;12.68;1.95;;;10.60;98.20;;;;;;5046579;28;20501;-66
2022/04/27 09:13:58;;;;;;;8.27;1.90;;;10.60;98.10;;;;;;5020968;28;20131;-68
2022/04/27 09:20:46;;;;;;;10.40;1.83;;;10.60;97.70;;;;;;5034588;28;20136;-66
2022/04/27 09:22:04;;;;;;;5.50;1.85;;;10.50;98.30;;;;;;5044561;28;20058;-66
2022/04/27 09:24:47;;;;;;;9.77;2.00;;;10.60;98.30;;;;;;5030470;28;20076;-66
2022/04/27 09:27:17;;;;;;;12.10;2.95;;;10.60;98.60;;;;;;5015989;28;20080;-66
2022/04/27 09:29:43;;;;;;;14.45;2.28;;;10.70;98.50;;;;;;5016509;28;20481;-66
2022/04/27 09:32:15;;;;;;;10.80;2.75;;;10.80;98.40;;;;;;5044245;28;20045;-66
2022/04/27 09:34:48;;;;;;;10.52;1.90;;;10.90;98.40;;;;;;5034412;28;20479;-66
2022/04/27 09:37:27;;;;;;;9.32;1.90;;;11.00;97.80;;;;;;5035831;28;20051;-66
2022/04/27 09:40:01;;;;;;;7.45;2.42;;;11.00;97.20;;;;;;5034202;28;20458;-66
2022/04/27 09:42:46;;;;;;;9.68;1.92;;;11.10;95.20;;;;;;5046007;28;20178;-66
2022/04/27 09:45:16;;;;;;;7.20;1.85;;;11.10;96.30;;;;;;5040467;28;20497;-66
2022/04/27 09:47:53;;;;;;;10.60;2.08;;;11.10;96.10;;;;;;5041827;28;20044;-71
2022/04/27 09:50:19;;;;;;;9.15;2.10;;;11.20;96.30;;;;;;5024438;28;20544;-67
2022/04/27 09:52:46;;;;;;;11.23;1.88;;;11.20;96.40;;;;;;5045216;28;20108;-66
2022/04/27 09:55:12;;;;;;;;;;;11.40;96.20;;;;;;5040956;28;20064;-66
2022/04/27 09:57:39;;;;;;;9.00;1.90;;;11.50;96.80;;;;;;5040522;28;19979;-66
2022/04/27 10:00:06;;;;;;;7.75;2.15;;;11.50;96.20;;;;;;5043323;28;20033;-66
2022/04/27 10:02:34;;;;;;;15.75;2.50;;;11.60;95.90;;;;;;5042750;28;20536;-67
2022/04/27 10:05:00;;;;;;;6.97;2.00;;;11.70;95.50;;;;;;5042230;28;20541;-66
2022/04/27 10:07:27;;;;;;;7.57;1.77;;;11.80;95.30;;;;;;5042607;28;20132;-66
2022/04/27 10:09:54;;;;;;;10.82;1.80;;;11.80;94.60;;;;;;5043344;28;20076;-67
2022/04/27 10:12:19;;;;;;;8.77;1.92;;;11.90;94.00;;;;;;5045774;28;20040;-66
2022/04/27 10:14:45;;;;;;;9.52;2.17;;;11.90;93.80;;;;;;5030969;28;20132;-66
2022/04/27 10:17:12;;;;;;;11.87;2.13;;;12.00;93.00;;;;;;5048262;28;20294;-66
2022/04/27 10:19:47;;;;;;;12.70;3.15;;;12.00;92.80;;;;;;5038883;28;20037;-66
2022/04/27 10:22:31;;;;;;;8.10;1.90;;;12.00;92.20;;;;;;5047697;28;20044;-67
2022/04/27 10:25:03;;;;;;;8.80;1.95;;;12.10;92.10;;;;;;5024281;28;20048;-66
2022/04/27 10:27:40;;;;;;;13.52;3.25;;;12.20;92.50;;;;;;5041738;28;20104;-67
2022/04/27 10:30:07;;;;;;;7.65;1.77;;;12.30;91.30;;;;;;5022261;28;20047;-66
2022/04/27 10:32:52;;;;;;;12.00;2.20;;;12.40;91.30;;;;;;5042487;28;20041;-67
2022/04/27 10:35:30;;;;;;;10.18;2.00;;;12.40;89.50;;;;;;5045056;28;20654;-66
2022/04/27 10:38:04;;;;;;;9.10;2.78;;;12.50;88.80;;;;;;5017592;28;20053;-67
2022/04/27 10:40:34;;;;;;;10.98;1.85;;;12.60;89.80;;;;;;5041698;28;20045;-66
2022/04/27 10:43:06;;;;;;;6.90;2.60;;;12.70;87.20;;;;;;5047937;28;20407;-66
2022/04/27 10:45:33;;;;;;;10.85;2.17;;;12.80;87.40;;;;;;5028914;28;20052;-66
2022/04/27 10:47:59;;;;;;;3.92;1.48;;;12.90;88.10;;;;;;5050809;28;20045;-66
2022/04/27 10:50:29;;;;;;;10.93;2.10;;;13.10;86.90;;;;;;5014654;28;20045;-66
2022/04/27 10:52:56;;;;;;;12.82;3.97;;;13.20;83.70;;;;;;5045106;28;20427;-66
2022/04/27 10:55:42;;;;;;;8.35;2.35;;;13.20;80.90;;;;;;5036550;28;20112;-66
2022/04/27 10:58:18;;;;;;;7.90;1.67;;;13.20;78.20;;;;;;5045185;28;20041;-66
2022/04/27 11:01:01;;;;;;;7.38;1.95;;;13.00;76.70;;;;;;5028981;28;20474;-66
2022/04/27 11:03:35;;;;;;;6.53;1.80;;;12.90;75.80;;;;;;5037269;28;20049;-66
2022/04/27 11:06:04;;;;;;;7.82;1.80;;;12.80;78.00;;;;;;5045640;28;20111;-66
2022/04/27 11:08:32;;;;;;;9.68;2.40;;;12.60;76.90;;;;;;5036874;28;20033;-66
2022/04/27 11:11:05;;;;;;;9.43;1.98;;;12.60;79.50;;;;;;5028278;28;20206;-66
2022/04/27 11:13:32;;;;;;;7.53;1.80;;;12.60;79.80;;;;;;5040989;28;20110;-66
2022/04/27 11:16:12;;;;;;;5.95;1.60;;;12.50;78.10;;;;;;5046923;28;20060;-67
2022/04/27 11:18:57;;;;;;;7.22;2.00;;;12.50;75.60;;;;;;5048923;28;20452;-66
2022/04/27 11:21:25;;;;;;;6.22;1.92;;;12.40;75.40;;;;;;5023047;28;20029;-66
2022/04/27 11:23:52;;;;;;;9.10;2.90;;;12.30;75.00;;;;;;5039600;28;20055;-66
2022/04/27 11:26:17;;;;;;;5.25;1.48;;;12.20;75.20;;;;;;5023063;28;20037;-66
2022/04/27 11:28:45;;;;;;;9.83;2.20;;;12.20;76.60;;;;;;5036715;28;20090;-67
2022/04/27 11:31:12;;;;;;;6.10;1.95;;;12.20;74.30;;;;;;5041319;28;20447;-66
2022/04/27 11:33:41;;;;;;;8.05;2.78;;;12.20;76.40;;;;;;5028283;28;20040;-68
2022/04/27 11:36:28;;;;;;;6.45;1.73;;;12.20;76.90;;;;;;5042208;28;20076;-72
2022/04/27 11:38:55;;;;;;;10.77;1.77;;;12.30;76.80;;;;;;5030589;28;20041;-66
2022/04/27 11:41:23;;;;;;;8.18;2.50;;;12.30;78.30;;;;;;5048400;28;20394;-66
2022/04/27 11:43:50;;;;;;;8.50;1.80;;;12.40;78.70;;;;;;5025397;28;20056;-68
2022/04/27 11:46:17;;;;;;;7.45;1.92;;;12.40;77.50;;;;;;5041110;28;20113;-66
2022/04/27 11:48:52;;;;;;;7.55;1.80;;;12.40;77.20;;;;;;5030841;28;20191;-66
2022/04/27 11:51:18;;;;;;;13.95;2.40;;;12.50;77.00;;;;;;5057608;22;20041;-69
2022/04/27 11:53:49;;;;;;;10.95;1.90;;;12.50;77.60;;;;;;5026653;28;20124;-70
2022/04/27 11:56:16;;;;;;;7.90;1.98;;;12.60;75.20;;;;;;5024203;28;20436;-71
2022/04/27 11:58:45;;;;;;;7.35;1.88;;;12.60;76.10;;;;;;5018272;28;20044;-72
2022/04/27 12:01:18;;;;;;;5.97;1.70;;;12.60;75.90;;;;;;5008452;28;20132;-70
2022/04/27 12:03:44;;;;;;;14.10;2.20;;;12.60;75.10;;;;;;5013997;28;20348;-70
2022/04/27 12:06:21;;;;;;;7.90;1.63;;;12.50;74.50;;;;;;5015572;28;20069;-69
2022/04/27 12:08:47;;;;;;;6.85;1.58;;;12.40;72.50;;;;;;4995943;28;20051;-70
2022/04/27 12:11:23;;;;;;;8.50;2.20;;;12.40;75.50;;;;;;5019079;28;20502;-70
2022/04/27 12:13:49;;;;;;;7.78;1.90;;;12.40;77.50;;;;;;5025754;28;20046;-69
2022/04/27 12:16:15;;;;;;;9.90;2.47;;;12.40;78.70;;;;;;5017856;28;20184;-71
2022/04/27 12:18:52;;;;;;;12.25;2.17;;;12.40;79.00;;;;;;5011591;28;20104;-69
2022/04/27 12:21:24;;;;;;;11.82;2.47;;;12.40;74.90;;;;;;5006846;28;20045;-70
2022/04/27 12:23:51;;;;;;;9.25;1.85;;;12.30;78.10;;;;;;4981358;28;20294;-69
2022/04/27 12:26:17;;;;;;;;;;;12.30;77.70;;;;;;4993906;28;20132;-69
2022/04/27 12:28:49;;;;;;;6.77;1.60;;;12.30;76.80;;;;;;5016248;28;19921;-69
2022/04/27 12:31:17;;;;;;;8.75;1.73;;;12.30;77.90;;;;;;4997952;28;20153;-69
2022/04/27 12:33:44;;;;;;;10.13;2.10;;;12.40;77.50;;;;;;5002461;28;20049;-69
2022/04/27 12:39:07;;;;;;;6.32;1.88;;;12.50;75.50;;;;;;5014686;28;20049;-70
2022/04/27 12:41:37;;;;;;;8.13;1.60;;;12.60;75.40;;;;;;5016540;28;20103;-71
2022/04/27 12:44:07;;;;;;;7.45;1.70;;;12.60;74.40;;;;;;5007654;28;20110;-71
2022/04/27 12:46:33;;;;;;;5.50;1.80;;;12.70;74.10;;;;;;5002656;28;20540;-71
2022/04/27 12:49:07;;;;;;;8.32;2.05;;;12.70;72.80;;;;;;5025357;28;20394;-72
2022/04/27 12:51:35;;;;;;;4.72;1.75;;;12.70;70.30;;;;;;5000844;28;20475;-70
2022/04/27 12:54:04;;;;;;;9.63;1.65;;;12.70;71.90;;;;;;4982908;28;20528;-70
2022/04/27 12:56:34;;;;;;;7.68;1.80;;;12.70;72.90;;;;;;4999315;28;20048;-71
2022/04/27 12:59:08;;;;;;;8.00;1.70;;;12.80;72.40;;;;;;4999888;28;20523;-71
2022/04/27 13:01:34;;;;;;;11.00;1.95;;;12.80;71.50;;;;;;5022333;28;20108;-70
2022/04/27 13:04:00;;;;;;;8.93;2.10;;;12.90;72.30;;;;;;5004707;28;20722;-71
2022/04/27 13:06:29;;;;;;;10.57;2.03;;;12.80;71.20;;;;;;5003404;28;20060;-70
2022/04/27 13:11:56;;;;;;;5.03;1.80;;;12.70;70.50;;;;;;5025161;28;20053;-71
2022/04/27 13:14:26;;;;;;;6.35;1.55;;;12.70;70.30;;;;;;5016443;28;20044;-70
2022/04/27 13:16:55;;;;;;;7.90;1.75;;;12.60;69.00;;;;;;5004746;28;20087;-70
2022/04/27 13:19:22;;;;;;;7.57;1.73;;;12.60;70.20;;;;;;5010465;28;20041;-71
2022/04/27 13:21:48;;;;;;;4.78;1.50;;;12.60;70.30;;;;;;5001997;28;20036;-69
2022/04/27 13:24:14;;;;;;;6.30;1.90;;;12.60;70.50;;;;;;5024542;28;20052;-70
2022/04/27 13:26:40;;;;;;;5.60;1.90;;;12.60;71.20;;;;;;4987074;28;20049;-70
2022/04/27 13:29:06;;;;;;;15.13;1.70;;;12.70;69.60;;;;;;5013962;28;20143;-71
2022/04/27 13:31:32;;;;;;;6.10;1.60;;;12.70;68.80;;;;;;5008345;28;20038;-69
2022/04/27 13:33:58;;;;;;;9.07;1.58;;;12.70;69.00;;;;;;5013017;28;20124;-69
2022/04/27 13:36:24;;;;;;;5.30;1.88;;;12.70;67.90;;;;;;5004906;28;20124;-69
2022/04/27 13:38:50;;;;;;;7.18;1.58;;;12.70;67.80;;;;;;4998454;28;20334;-69
2022/04/27 13:41:16;;;;;;;6.75;1.60;;;12.70;67.40;;;;;;5017139;28;20045;-69
2022/04/27 13:43:42;;;;;;;4.90;1.60;;;12.70;68.00;;;;;;5012618;28;20121;-70
2022/04/27 13:46:08;;;;;;;4.50;1.43;;;12.70;67.50;;;;;;5018007;28;20033;-69